events-overview

Angels Race NC

 

Overall Men

Tanglewood Park - Clemmons, NC 9/14/2008 09:00AM

** Results are for the private use of participants and are the Intellectual Property of Set Up Events. Unauthorized use of these results is prohibited.

Place Bib cat. NAME CITY/STATE Rank SWIM T1 Rank BIKE T2 Rank RUN PENALTY TIME DQ
1545 JONATHAN KELLYWINSTON-SALEM NC1900:04:4300:01:00400:29:1700:00:49100:18:17 00:54:04 
25 KEITH DAVISWINSTON-SALEM NC700:04:1900:00:47200:28:4100:00:44400:20:26 00:54:56 
315 NED TOBEYWINSTON SALEM NC500:04:1800:00:50600:29:4600:00:53900:20:41 00:56:26 
4543 JEFF ICKESWINSTON-SALEM NC1000:04:2900:00:58700:30:2100:01:06500:20:28 00:57:19 
572 DAVID KAATKERNERSVILLE NC3400:05:0600:00:491300:32:1400:00:51200:18:36 00:57:32 
642 TIM GAUTREAURALEIGH NC4600:05:2000:00:421200:32:0700:00:52300:19:31 00:58:30 
76 JOHN SHILTWINSTON-SALEM NC300:04:0400:00:43300:29:0100:01:185200:24:30 00:59:33 
884 JOHN MOORECHARLOTTE NC3200:05:0300:01:02900:31:2500:00:531700:21:58 01:00:19 
9187 SCOTT JONESCLEMMONS NC2900:05:0000:00:471000:31:4300:01:022800:23:23 01:01:54 
1031 LANDON BETSWORTHCHARLOTTE NC800:04:2100:00:495000:35:3900:00:49600:20:28 01:02:05 
1151 DAVID BROWNVALDESE NC3500:05:0700:01:002000:33:4100:00:471500:21:48 01:02:20 
1237 ROBERT PRESTWOODWINSTON-SALEM NC900:04:2500:01:001400:32:3300:00:573100:23:28 01:02:21 
1358 ROBBY KNELSONELON NC3800:05:1200:01:072200:33:4300:00:561600:21:54 01:02:49 
1496 T.R. HASHWINSTON SALEM NC2600:04:5600:01:072100:33:4300:01:133400:23:32 01:04:29 
15265CASHLEY WALDRIDGEGREENSBORO NC4800:05:2300:02:322800:34:0900:01:011300:21:41 01:04:44 
16249 JOSEPH KESSLERRALEIGH NC11400:06:2300:00:512700:34:0700:00:592200:22:54 01:05:12 
1712 ALLEN RAYCARY NC3700:05:1200:00:469600:38:0200:00:47800:20:32 01:05:17 
18342 DEAN JARRETTMARTINSVILLE VA12100:06:2800:00:565300:35:5000:01:121100:21:05 01:05:29 
19352 CHRIS PAGECHARLOTTE NC17500:07:0900:01:443200:34:1900:01:161200:21:13 01:05:39 
2047 SHAWN DEELEYWINSTON-SALEM NC3300:05:0500:01:317700:36:5400:02:00700:20:32 01:05:59 
21457 MARK NOZEDARCHARLOTTE NC22100:08:1000:01:46800:31:0100:01:015000:24:27 01:06:23 
2225 GREG RALSTONWINSTON SALEM NC1600:04:3900:01:022500:33:5300:01:117800:26:09 01:06:53 
2338 HERNAN SABIOWINSTON SALEM NC4100:05:1700:02:114500:35:2400:01:481800:22:16 01:06:54 
24107 JOHN PONTZERWILKESBORO NC6800:05:3700:01:183600:34:4500:01:194400:24:05 01:07:02 
2534 WILL KENNEDYLOOKOUT MOUNTAIN TN5800:05:3100:02:336700:36:3100:01:301000:21:02 01:07:06 
26366 CHRIS VINCOLIDAVIDSON NC8900:06:0100:02:044400:35:1700:00:562300:22:58 01:07:14 
27189 BRIAN BOHRERCLEMMONS NC1800:04:4300:01:353100:34:1800:01:496200:24:56 01:07:19 
28293 TIMOTHY MICHAE YORKDAVIDSON NC12600:06:3200:01:204200:35:0400:01:143000:23:28 01:07:36 
2949 DAVID CROSSISLE OF PALMS SC5700:05:3100:01:009300:37:5000:01:401400:21:47 01:07:47 
30221 THOMAS CRAVENWINSTON-SALEM NC9300:06:0800:01:531100:32:0300:01:259000:26:22 01:07:49 
PlaceBibcat.NAMECITY/STATERankSWIMT1RankBIKET2RankRUNPENALTYTIMEDQ
3164MCCARL THOMASONHENDERSON NC4300:05:1800:01:011600:33:1100:01:0210500:27:18 01:07:49 
32479 CHAD COLLINSSTUART VA13300:06:4000:01:273900:34:5800:01:322600:23:15 01:07:51 
33289 DERRICK WILLMOTTLEWISVILLE NC6700:05:3700:02:221800:33:3500:01:226400:25:01 01:07:55 
34259 JEFF MOHANMEDFIELD MA7200:05:4700:01:355600:35:5800:01:452400:23:00 01:08:02 
35428 JOHN BOWMANTRINITY NC16200:06:5900:01:371700:33:2500:01:046300:25:00 01:08:03 
3611 JASON PETERSCHAPEL HILL NC1700:04:4200:01:201900:33:3700:01:2410100:27:03 01:08:03 
37323 ED MODZELEWSKICHARLOTTE NC10900:06:2000:01:402600:34:0600:02:333300:23:29 01:08:07 
38281 MITCHELL PITTMANAPEX NC10600:06:1900:01:115800:36:0500:01:073200:23:29 01:08:09 
3923 ERIC DEWEYCHARLOTTE NC1400:04:3200:01:335100:35:4500:01:016800:25:26 01:08:14 
40120 CHRIS GIBBYCLEMMONS NC10500:06:1900:02:213000:34:1700:01:144500:24:07 01:08:16 
4119 CONNOR STEMPLEHICKORY NC3100:05:0300:01:279900:38:0700:01:051900:22:38 01:08:18 
4294MCKEITH STONEWINSTON SALEM NC4700:05:2200:01:593300:34:2500:01:456000:24:50 01:08:19 
43492CK. SHEA ABERNETHYKERNERSVILLE NC14300:06:4900:02:173700:34:4600:01:182700:23:19 01:08:26 
44125 JEFF PLEMMONSGASTONIA NC6600:05:3600:01:385400:35:5200:01:334100:23:52 01:08:29 
45288 JASON WHITLERWINSTON-SALEM NC7500:05:4900:02:017000:36:4100:01:112500:23:05 01:08:45 
4673 FRAZIER KECKCHAPEL HILL NC9000:06:0100:01:135200:35:4800:01:065700:24:46 01:08:52 
47193 MITCHELL TERMOTTOWINSTON-SALEM NC8100:05:5700:01:205700:35:5900:01:055300:24:37 01:08:56 
4863 RON SMITHMOORESVILLE NC4200:05:1800:01:216600:36:2900:01:334900:24:22 01:09:00 
4965 CHRISTOPHER ALLENCARY NC3600:05:1100:01:278500:37:2000:01:363500:23:34 01:09:06 
50466 JEFFREY DUNNSEATTLE WA22700:08:2300:01:54500:29:2700:02:1310800:27:25 01:09:20 
51105 KEITH HOLDEROAK RIDGE NC6000:05:3200:01:226500:36:2900:01:175600:24:44 01:09:21 
5269 MARK CAMPBELLWINSTON-SALEM NC4400:05:1800:01:244600:35:2400:01:217500:25:57 01:09:22 
53320 SCOTT WALKERSALISBURY NC11000:06:2000:01:355500:35:5500:01:274800:24:18 01:09:34 
54124 RUSSELL PENNINGTONHUNTERSVILLE NC12900:06:3800:01:112400:33:4400:01:439100:26:22 01:09:36 
55223 DAVE LUCASFAYETTEVILLE NC4500:05:1900:02:0010500:38:1900:01:102100:22:53 01:09:38 
56300 MIKE DERSTINEWINSTON SALEM NC11300:06:2300:01:062300:33:4300:01:3010000:27:02 01:09:42 
57260 LARRY RAYCARY NC8300:05:5900:01:164100:35:0000:01:188800:26:20 01:09:51 
58252 JAMES LONGDAYTON OH13000:06:3900:03:094900:35:3800:01:472000:22:48 01:09:59 
59220 CONNOR O'DONNELLWINSTON-SALEM NC3900:05:1300:01:21100:27:5800:00:4720900:35:01 01:10:18 
6017MCCHRIS HOLADAYLEASBURG NC2000:04:4400:01:289200:37:4600:01:206600:25:09 01:10:25 
6199 KEVIN MCCARTHYDAVIDSON NC7000:05:3900:02:185900:36:0700:01:376100:24:50 01:10:29 
PlaceBibcat.NAMECITY/STATERankSWIMT1RankBIKET2RankRUNPENALTYTIMEDQ
62285 ALAN TURNERHIGH POINT NC12200:06:2800:01:548900:37:3000:01:093600:23:36 01:10:35 
633 PETER BRUMMCORNELIUS NC100:03:4300:01:3716200:41:2900:00:322900:23:27 01:10:45 
6455 JUSTIN GRICHELON NC2800:04:5700:01:3411200:38:4100:01:065100:24:28 01:10:45 
65347 RAY LOCKLEARADVANCE NC14900:06:5300:00:497200:36:4200:01:096700:25:16 01:10:47 
66413CCLINT ACREYWINSTON SALEM NC15200:06:5500:01:376100:36:1700:01:235400:24:39 01:10:49 
6761 DONALD NEWTONFAYETTEVILLE NC8400:05:5900:01:103500:34:4200:01:3910700:27:23 01:10:52 
68299 STU COMANDURHAM NC20600:07:3300:01:267300:36:4300:01:234200:23:53 01:10:56 
6946 MARK ANDERSSONCHAPEL HILL NC5000:05:2600:01:082900:34:1100:02:0312600:28:16 01:11:03 
70376 NEIL GRIFFINCLEMMONS NC9100:06:0200:01:283800:34:4800:01:4010600:27:18 01:11:14 
71386 MATTHEW MCBEEPITTSBORO NC18800:07:1900:03:091500:33:0100:01:209200:26:27 01:11:14 
7227CJASON STEINBICKERWINSTON SALEM NC2100:04:4600:01:006000:36:1000:01:0712700:28:17 01:11:19 
73350 PAUL NIELSONWINSTON-SALEM NC18200:07:1500:01:536900:36:3900:01:414700:24:15 01:11:42 
74474 DAVID MAACHARLOTTE NC22600:08:2000:01:273400:34:3200:01:138300:26:15 01:11:46 
75119 DUNCAN DAVISTHOMASVILLE NC11800:06:2600:01:058700:37:2500:01:087400:25:57 01:11:58 
7632 DAVID DIXONCLEMMONS NC600:04:1900:00:4712900:39:4200:01:038000:26:11 01:11:59 
7740 GREGORY COOKADVANCE NC1200:04:2900:01:309400:37:5200:01:1010200:27:10 01:12:10 
7892 JOHN SEMANICKELMENDORF AFB AK3000:05:0200:01:239500:37:5600:02:227000:25:31 01:12:12 
79126 ANTHONY READMOORESVILLE NC8200:05:5800:01:267600:36:5200:01:0710400:27:18 01:12:39 
8045 KENNETH RUSTERHOLZLEWISVILLE NC1100:04:2900:01:138800:37:2700:01:0613300:28:46 01:12:59 
81338 NICK GONZALESWINSTON SALEM NC10300:06:1600:01:477800:36:5700:02:047700:26:07 01:13:09 
82420 RYAN SCHOLLWINSTON-SALEM NC10700:06:1900:02:2211700:38:5800:01:494000:23:48 01:13:14 
83258 BRAD MIDDLETONPFAFFTOWN NC5500:05:2900:02:049800:38:0300:01:258900:26:21 01:13:20 
84236 DAVID WELCHWINSTON SALEM NC7800:05:5600:02:4110900:38:3000:01:166500:25:09 01:13:30 
85303 JOHN HOGLANDERWINSTON SALEM NC14100:06:4400:02:266800:36:3200:01:309400:26:31 01:13:41 
8610 MICHAEL MEBELADVANCE NC400:04:1300:01:3315200:41:0300:01:037300:25:51 01:13:41 
8724 KRISTOPHER MANNENELON NC6300:05:3400:02:329000:37:3300:04:283700:23:37 01:13:42 
88339 WILL GRAHAMCHARLOTTE NC9600:06:1000:02:3314000:40:0800:00:514300:24:02 01:13:42 
89301 MIKE GUERINCARY NC9400:06:0900:03:177100:36:4200:01:238700:26:19 01:13:47 
90203 CHIP LINVILLEWINSTON SALEM NC18300:07:1800:01:414800:35:3500:01:3611500:27:51 01:13:59 
91358 JOHN SEMANICKMORRISVILLE NC17100:07:0400:01:3612200:39:0700:01:285900:24:49 01:14:03 
92278 KENT KIRKMANWINSTON SALEM NC5300:05:2900:01:198100:37:0400:01:3113200:28:44 01:14:04 
PlaceBibcat.NAMECITY/STATERankSWIMT1RankBIKET2RankRUNPENALTYTIMEDQ
93140 FLIP BISHOPBLACKSBURG VA13900:06:4300:01:4112100:39:0700:00:577200:25:38 01:14:05 
94451 TERRY HOWERTONWINSTON-SALEM NC22000:08:0700:01:4113500:40:0000:00:453800:23:43 01:14:14 
95139 KEVIN ATKINSAPEX NC7100:05:4400:01:5212400:39:2200:01:128100:26:11 01:14:18 
96110 RUSS STEWARTORIENTAL NC12500:06:3200:02:206200:36:2100:01:4011200:27:42 01:14:33 
9721 MICHAEL BRIENZACHARLOTTE NC2200:04:4800:01:1215400:41:0900:00:569500:26:36 01:14:40 
9820 JOHN BRIENZACHARLOTTE NC2500:04:5000:01:1915300:41:0400:01:109300:26:29 01:14:50 
99430 GREG DUNNSALISBURY NC21400:07:4700:01:5510000:38:0700:01:556900:25:29 01:15:12 
100309 JOHN MCKINNEYHIGH POINT NC12400:06:3000:01:477900:36:5900:00:5813900:29:01 01:15:14 
101143 MARC CAUBLELEXINGTON NC20800:07:3400:02:328000:37:0300:03:265500:24:41 01:15:14 
102434 TIM LIETZGREENSBORO NC21900:08:0600:00:596400:36:2400:01:1813000:28:32 01:15:18 
103134 BRUCE HOLLIDAYWINSTON-SALEM NC8800:06:0000:01:268400:37:1800:01:1514300:29:23 01:15:21 
10474 RUSTY PATEHIGH POINT NC4000:05:1500:01:4510300:38:1700:01:3013100:28:41 01:15:27 
105382CGREG GILBERTCONCORD NC12000:06:2800:01:504700:35:2900:01:2315100:30:19 01:15:27 
106327MCJIM BREWERBURNSVILLE NC14800:06:5300:01:586300:36:2200:00:5514600:29:27 01:15:34 
107116 KEVIN BRYANMERRITT NC16300:07:0000:01:2812700:39:3400:01:208500:26:18 01:15:37 
10887 TED POLFELTROANOKE VA6100:05:3300:01:4513200:39:5800:01:1210300:27:15 01:15:41 
10990CPAUL SANDERSGREENSBORO NC5200:05:2700:02:144000:35:0000:01:2917100:31:32 01:15:41 
110276MCBRYAN JAMESGREENSBORO NC6400:05:3600:02:354300:35:0900:02:0015500:30:32 01:15:50 
111122 CHAD HOPKINSFORT BRAGG NC14500:06:4900:01:5311100:38:3800:01:589600:26:36 01:15:52 
112113 MICHAEL JORDANJUPITER FL23300:08:3400:01:447400:36:4600:01:529900:26:59 01:15:54 
113117 MARK BUCYEDEN NC5400:05:2900:02:1611900:39:0300:01:3711400:27:47 01:16:10 
114412 DAVID MORELWINSTON SALEM NC15700:06:5700:01:4310100:38:1000:01:5111000:27:32 01:16:11 
115537 RAY WRIGHTADVANCE NC21500:07:5100:03:138200:37:1100:01:219800:26:51 01:16:25 
116368 JOE VOSHELLDURHAM NC14000:06:4400:01:4311000:38:3700:01:2511900:28:01 01:16:29 
117194 CHRIS RAMSEYCHARLOTTE NC10400:06:1600:01:5510700:38:2800:02:0011800:27:59 01:16:37 
118297 CHRIS MILESWINSTON-SALEM NC13400:06:4000:02:0018200:43:1800:01:083900:23:46 01:16:50 
119118 CHUCK DAVISCLEMMONS NC12700:06:3300:01:3311400:38:4500:01:4012800:28:29 01:16:57 
120406 PATRICK REYNOLDSLEWISVILLE NC17400:07:0700:03:2110400:38:1800:02:087900:26:10 01:17:01 
121273 DOUG DUNNDENVER NC21800:08:0200:01:429100:37:3700:01:3512400:28:11 01:17:04 
122291 PAUL RUDNICKEWINSTON SALEM NC         01:17:05 
123505 DAVID MONTGOMERYTROUTMAN NC22500:08:1700:01:537500:36:5000:02:0312300:28:10 01:17:11 
PlaceBibcat.NAMECITY/STATERankSWIMT1RankBIKET2RankRUNPENALTYTIMEDQ
124121 MARTIN GUTHOLDWINSTON-SALEM NC8700:06:0000:03:238300:37:1400:02:0413500:28:47 01:17:26 
125225CCHRISTOPHER VAUGHANADVANCE NC14400:06:4900:02:4714800:40:4400:01:078200:26:15 01:17:40 
12650 BRAD BILFELTWINSTON-SALEM NC7900:05:5700:02:5811800:39:0200:01:4612100:28:04 01:17:45 
127389CRICK SCHOTTCLEMMONS NC6900:05:3700:01:529700:38:0300:01:2216400:30:58 01:17:49 
128112 DAVID OLLILACHAPEL HILL NC7600:05:4900:01:5613900:40:0700:01:1813400:28:47 01:17:56 
129275 CHAD HOFFORIENTAL NC13200:06:4000:01:1915600:41:1700:01:0912000:28:03 01:18:24 
130272 MICHAEL BURLESONEDEN NC16900:07:0300:01:5010600:38:2800:01:2614900:29:50 01:18:36 
131261 JARRETT ROBBINSCHARLOTTE NC8000:05:5700:02:0512600:39:2600:01:3814700:29:35 01:18:39 
1324 MARK MEDENDORPGREENSBORO NC200:03:4500:01:4312800:39:3900:00:5118600:32:43 01:18:39 
13353 SCOTT DAVISJAMESTOWN NC2700:04:5700:01:058600:37:2200:02:0819500:33:23 01:18:54 
134294 CHRIS KENNERMCLEAN VA10100:06:1500:03:1520300:44:3200:01:194600:24:07 01:19:26 
135271 DONALD BLACKWELLDENVER NC16400:07:0000:01:0811600:38:5600:01:5715700:30:37 01:19:36 
136401 TREY HUCKSORIENTAL NC13500:06:4000:01:0520100:44:2900:01:138400:26:16 01:19:41 
137390 RUSS SCHROTERCARY NC13800:06:4300:01:0013700:40:0200:00:5917400:31:39 01:20:21 
138424 DAVE ZLOTKOWSKIGREENSBORO NC12800:06:3800:01:5518900:43:4600:00:5911100:27:32 01:20:48 
139515 JACKSON TAYLORWINSTON SALEM NC24500:10:1400:02:3715900:41:2100:01:565800:24:47 01:20:54 
140329 MARTIN BURKEHIGH POINT NC11500:06:2500:02:0713800:40:0300:01:1716700:31:14 01:21:04 
141392 CHARLIE ORMONDAURORA NC15100:06:5400:01:4718600:43:4200:00:5511600:27:51 01:21:08 
142135 WILL FRISBIECLEMMONS NC7700:05:5400:02:2715100:40:5600:02:3714200:29:18 01:21:10 
143387 JAMES MCMAHONHIGH POINT NC8600:06:0000:02:5313100:39:5600:01:0417600:31:53 01:21:44 
144517 JEFF BATTSHIGH POINT NC19700:07:2500:01:2616500:41:4000:02:0114000:29:15 01:21:46 
145367 ANDREW VOLZPETERSBURG VA17800:07:1100:02:1014200:40:1800:01:3515600:30:34 01:21:46 
146332 JOHN COXGRAHAM NC17700:07:1000:01:4214100:40:1500:01:5516100:30:47 01:21:47 
147361 VINCENT STONEWINSTON SALEM NC20100:07:2900:02:1112500:39:2300:01:4016500:31:06 01:21:47 
148316 MEL BLACKGASTONIA NC18000:07:1200:01:3913000:39:4300:01:2317700:31:57 01:21:52 
149544 JEFF HUNTERDURHAM NC5900:05:3200:02:2417100:42:3200:00:5615800:30:38 01:22:01 
150346CPETER LENZWINSTON-SALEM NC13600:06:4000:02:1311300:38:4200:01:0919400:33:22 01:22:04 
151437CBRYAN BEAIRDHIGH POINT NC17600:07:1000:01:4813600:40:0000:01:4817000:31:27 01:22:11 
152506 CECIL DAVISWINSTON-SALEM NC21700:08:0100:01:3917500:42:5100:00:5213700:28:56 01:22:17 
153484 CHRIS SPREHERRALEIGH NC15400:06:5500:02:3710200:38:1700:02:1918200:32:21 01:22:27 
154290CTODD JONESRALEIGH NC11600:06:2500:01:4914700:40:4400:00:5419200:32:56 01:22:46 
PlaceBibcat.NAMECITY/STATERankSWIMT1RankBIKET2RankRUNPENALTYTIMEDQ
155458 DARREN PRICETAYLORSVILLE NC19500:07:2400:02:3017400:42:4600:02:2111700:27:52 01:22:51 
156419 ROSS SCALLANSALISBURY NC8500:05:5900:02:1814400:40:3000:02:0817800:32:03 01:22:56 
157482 DALE NICHOLSINDIAN LAND SC19100:07:2300:03:0815800:41:1900:01:2214800:29:47 01:22:57 
158200 JAMES BULLOCKWINSTON SALEM NC19000:07:2100:01:3816300:41:3900:01:3016300:30:56 01:23:03 
159425 OLDA GARDONSTANFIELD NC19600:07:2500:01:5214500:40:3500:01:0718000:32:07 01:23:04 
160307 COY LYNCHGRANTSBORO NC9800:06:1300:01:2020000:44:2500:01:0415200:30:20 01:23:21 
161296 WILLIAM FURMANPITTSBORO NC16800:07:0300:01:1612000:39:0500:02:0220000:34:03 01:23:27 
162504 CHRIS EAGLECLEMMONS NC20000:07:2700:02:2319800:44:2400:01:1712200:28:08 01:23:36 
163305 BRAD JOHNSONTROUTMAN NC11200:06:2200:01:5012300:39:1600:01:2020500:34:50 01:23:37 
164411 JOHN BORWICKWINSTON-SALEM NC19900:07:2700:01:4114900:40:4600:01:2118400:32:32 01:23:45 
165311 LOKESH RAVICLEMMONS NC9500:06:0900:02:5216400:41:4000:01:4916800:31:20 01:23:48 
166498 HENRY MURRAYBELEWS CREEK NC24200:09:2300:03:0610800:38:2900:03:4114100:29:17 01:23:54 
167494 SAM DAYLEXINGTON NC1300:04:3000:01:3322400:48:3900:00:5912500:28:16 01:23:56 
168256 MICHAEL MAZZACLEMMONS NC24400:10:1000:01:3817000:42:1700:00:5513800:29:00 01:23:57 
169467 MICHAEL DUNNCLEMMONS NC22200:08:1100:02:4920600:45:1700:01:248600:26:19 01:23:58 
170533 KYLE MILLSPFAFFTOWN NC23000:08:2700:01:4916100:41:2300:02:0015400:30:31 01:24:08 
17126 GARRETT SKINNERBLACKSBURG VA1500:04:3700:01:5720500:45:1600:00:4917500:31:42 01:24:20 
172224 JUSTIN MORRISWINSTON SALEM NC10800:06:2000:02:3522100:48:3400:01:007600:26:00 01:24:27 
17375 NICHLAUS ALLEXSPRINGLAKE NC2400:04:5000:01:5119200:43:5300:02:2317300:31:38 01:24:33 
174284 DAVID SIMONSLEXINGTON NC5100:05:2700:02:1113300:39:5900:02:3120200:34:29 01:24:35 
175283 PETE SCHANTZCLEMMONS NC14700:06:5300:03:0214600:40:3900:02:0918300:32:23 01:25:04 
176370 DAN WHITECORNELIUS NC22900:08:2600:01:3717600:42:5500:01:3015900:30:42 01:25:08 
177519CJAMES CARAWAYNORTH MYRTLE BEACH SC15500:06:5600:01:2015000:40:4700:01:3120700:34:52 01:25:24 
17883 PRESTON MILLERWINSTON-SALEM NC9900:06:1300:02:3322600:48:5100:02:287100:25:31 01:25:34 
179138 KEVIN HOOVERLEXINGTON NC16700:07:0200:02:4920200:44:3200:01:3215000:29:51 01:25:45 
180233 CHICO FAIRPAFFTOWN NC17200:07:0500:02:2217300:42:4000:01:1918800:32:49 01:26:13 
181365 RYAN VILLARREALFORT BRAGG NC21300:07:4400:03:0121100:46:3900:02:179700:26:40 01:26:19 
182277 HENRY JORDANASHEVILLE NC11700:06:2600:01:5814300:40:2100:02:2821100:35:13 01:26:23 
183396MCANDREW ORPHANOUDAKISKANNAPOLIS NC21000:07:3800:02:2911500:38:4700:01:2422000:36:12 01:26:27 
18462 STEVE SKINNERBLACKSBURG VA6200:05:3300:01:5716600:41:4700:01:5521400:35:23 01:26:32 
185440 JOE LONGCLEMMONS NC23100:08:3200:04:2417700:43:0200:01:5513600:28:54 01:26:44 
PlaceBibcat.NAMECITY/STATERankSWIMT1RankBIKET2RankRUNPENALTYTIMEDQ
186324 KEVIN BENDERWINSTON-SALEM NC17300:07:0700:02:0116900:42:1700:02:4518700:32:45 01:26:52 
187384CCHAD JORDANMOORESVILLE NC11900:06:2600:02:4318000:43:0500:02:1819300:33:13 01:27:42 
188357MCBOB RHINEHARTCANDLER NC10000:06:1400:02:2415700:41:1800:02:2221500:35:34 01:27:49 
189216CMORGAN HEFNERRALEIGH NC19300:07:2400:03:1017200:42:3600:01:2819900:33:39 01:28:15 
19082 BILL MCKENZIE, JR.HIGH POINT NC10200:06:1500:01:5215500:41:1600:01:5722400:37:08 01:28:26 
191267MCJOHN CHIDWICKDENVER NC20900:07:3600:02:3819700:44:2100:01:5117900:32:05 01:28:30 
192399 BART GANZERTCLEMMONS NC22800:08:2400:02:2221600:47:4700:01:3012900:28:30 01:28:32 
193461 JOEL SHAWGREENSBORO NC19200:07:2400:01:5218100:43:1500:01:1420800:34:54 01:28:37 
194254 WILLIAM MASEARARCHDALE NC17900:07:1100:02:1819500:44:0800:01:4319600:33:27 01:28:45 
195456 STEPHEN MOOREFIELDCOLFAX NC22300:08:1300:04:0616700:41:5100:01:5719000:32:50 01:28:55 
196529 JODY OSBORNECLEMMONS NC16500:07:0200:02:2421300:46:5400:01:2417200:31:33 01:29:15 
197228 JACK KIMELDURHAM NC7300:05:4800:04:5019900:44:2500:01:2319100:32:52 01:29:17 
198210 LARRY ROBBSWINSTON-SALEM NC23600:08:3600:03:2821700:48:2000:01:2411300:27:44 01:29:30 
199123 SEAN KENNEDYCLEMMONS NC9200:06:0300:01:3721000:46:1200:00:4920600:34:51 01:29:31 
20022 HAMILTON CLARKCHARLOTTE NC4900:05:2400:03:0422700:49:4200:00:5616600:31:07 01:30:12 
201201 TAYLOR CAMPBELLWINSTON-SALEM NC11100:06:2000:02:3318300:43:2200:02:2421600:35:42 01:30:19 
202523 JOHN PENNINGTONCLEMMONS NC18600:07:1800:03:5516800:42:0800:02:2620300:34:39 01:30:23 
20354 AARON DUNSONWILMINGTON NC7400:05:4900:03:4622000:48:3300:00:4818100:32:13 01:31:07 
204375MCPATRIC ZIMMERCHARLOTTE NC15600:06:5600:03:2017800:43:0200:02:3621200:35:16 01:31:09 
205351 KYLE OGDENWEST FRIENDSHIP MD19400:07:2400:03:0622200:48:3500:01:2316000:30:44 01:31:11 
206508 JOHN PAXTON IVORIENTAL NC24300:09:4900:00:5721400:47:0600:00:4518500:32:38 01:31:13 
207485 KYLE SWICEGOODMOCKSVILLE NC13100:06:4000:03:0413400:40:0000:02:1623400:39:17 01:31:15 
208374 KENAN WRIGHTEDEN NC16000:06:5800:03:0018500:43:3200:02:3321300:35:18 01:31:19 
209356 JOE REYNOLDSWILMINGTON NC20700:07:3400:02:2516000:41:2300:03:2722200:36:50 01:31:36 
210263 TRISTAN STEWARTORIENTAL NC21200:07:4000:02:0421900:48:2400:01:1418900:32:49 01:32:09 
211477 BRUCE ADKINSCHARLOTTE NC23800:08:4000:02:1018400:43:3100:02:2821800:35:51 01:32:38 
212186CJONATHAN WOODHULL-SMITHRALEIGH NC2300:04:4800:02:0519300:43:5300:01:3323800:40:36 01:32:54 
213465 PAUL WILLIAMSCLEMMONS NC21100:07:3800:01:5420900:45:5500:02:2321000:35:07 01:32:56 
214355 KARSTEN RABECHAPEL HILL NC14200:06:4500:01:5322500:48:4900:00:5220400:34:43 01:33:00 
215497MCDAVID MUDDIMANCARY NC15300:06:5500:02:5018800:43:4200:01:5522800:37:54 01:33:13 
216333 GRAY DAVISWINSTON-SALEM NC13700:06:4000:02:5421800:48:2100:01:3320100:34:05 01:33:32 
PlaceBibcat.NAMECITY/STATERankSWIMT1RankBIKET2RankRUNPENALTYTIMEDQ
217334 PATRICK DOLANWINSTON-SALEM NC21600:07:5600:03:0619600:44:1900:01:4322300:36:50 01:33:53 
218531MCERIC SHEACLEMMONS NC16600:07:0200:02:2819400:43:5700:02:2923000:38:29 01:34:24 
219532 CHARLIE BELLOAK RIDGE NC15900:06:5700:02:1918700:43:4200:03:1023100:38:41 01:34:47 
220421 JERRY L SNEEDKING NC20500:07:3200:05:3117900:43:0300:02:5821900:35:56 01:34:58 
221380 TOM LAYMANCLEMMONS NC16100:06:5900:03:1219100:43:5000:02:0623300:39:14 01:35:19 
222402 KENAN LYNCHGRANTSBORO NC18400:07:1800:02:0322300:48:3900:01:4421700:35:43 01:35:25 
223266 TIMOTHY CONVERYCLEMMONS NC12300:06:3000:03:2722800:50:2400:01:3619800:33:38 01:35:33 
224483 STEVE RIDDLEMT AIRY NC18500:07:1800:03:4519000:43:4800:02:0823200:39:05 01:36:03 
225459CJEREMY PRITCHARDWINSTON-SALEM NC18100:07:1300:03:3321500:47:2200:01:3822100:36:43 01:36:26 
226480CMICHAEL INTERLANDIWINSTON SALEM NC20200:07:3100:03:1523400:53:3700:02:0116200:30:48 01:37:10 
227335 AARON DOMNITCHARLINGTON VA9700:06:1000:02:4323600:55:3400:02:3515300:30:23 01:37:24 
228371MCKEN WHITEEDEN NC20400:07:3200:02:3321200:46:3900:01:1223600:40:03 01:37:58 
229429 AUSTIN SMITHWICKHODGES SC14600:06:5100:03:5723500:54:3400:02:1616900:31:23 01:39:00 
230448 ROBERT HABERERKERNERSVILLE NC24000:08:5600:02:2120800:45:3900:02:1223500:39:59 01:39:06 
231410 PATRICK PATELLACLEMMONS NC17000:07:0300:02:5024300:59:0300:00:4814500:29:27 01:39:09 
232409CJAMES PATELLACLEMMONS NC15000:06:5300:03:1124200:58:5800:00:5114400:29:26 01:39:18 
233447 CHRIS GRIFFITHDAVIDSON NC22400:08:1300:03:2923100:52:5100:01:3919700:33:36 01:39:46 
234321 TRACY YOUNGHILLSBOROUGH NC23900:08:4900:01:0520400:44:5300:01:4324300:44:39 01:41:08 
235510 TANNER JOHNSONCLEMMONS NC23200:08:3300:02:2323000:51:5900:01:3322500:37:37 01:42:01 
236454MCKEVIN LOWMANKERNERSVILLE NC18700:07:1900:03:0120700:45:1900:03:5924000:42:30 01:42:05 
237415 CLAY CONLEYORIENTAL NC20300:07:3100:01:5823200:52:5200:01:2723900:41:22 01:45:08 
238340 DAVID HAWKINSHICKORY NC19800:07:2600:01:1224000:57:4200:01:0622700:37:49 01:45:13 
239431 DAN GREERADVANCE NC23500:08:3500:04:1823700:55:5800:02:4222900:38:27 01:49:58 
24068 MIKE HUDDLESTONLEXINGTON NC5600:05:3100:01:3923300:53:0500:02:0424400:47:48 01:50:06 
241408 BAILEY GUNTERCLEMMONS NC15800:06:5700:03:1524100:58:5000:01:0423700:40:12 01:50:15 
242524 JUSTIN SPEGALARAPAHOE NC23700:08:4000:02:0223800:55:5800:01:2124100:42:47 01:50:46 
243478 ERIC BRYANMERRITT NC23400:08:3500:02:0423900:57:0500:01:3524200:43:24 01:52:40 
244502 KEITH VANDERPOELCLEMMONS NC24100:09:2100:03:3224401:02:2200:03:0122600:37:44 01:55:59 
245215 THOMAS BAKERRALEIGH NC24600:11:1800:05:3622900:51:1700:02:3924500:48:55 01:59:43 
24659 SCOTT MCLEODDURHAM NC6500:05:3600:02:0824601:26:3800:01:0910900:27:27 02:02:56 
247219 WES MILLERTOBACCOVILLE NC18900:07:2000:02:4924501:15:4100:01:3024600:50:03 02:17:20 

** Results are for the private use of participants and are the Intellectual Property of Set Up Events. Unauthorized use of these results is prohibited.